KIKK/IKK METAR and TAF weather

Enter ICAO airport designator
Station Type Date Time Source
KIKK METAR 2019/04/26 03:35 UTC NOAA

KIKK 260335Z AUTO 35012KT 10SM BKN060 14/09 A2968 RMK AO2 T01360090


Station Type Date Time Source
KIKK Decoded METAR 2019/04/26 03:35 UTC NOAA

Kankakee, Greater Kankakee Airport, IL, United States (KIKK) 41-04-17N 087-50-47W
Apr 25, 2019 - 11:35 PM EDT / 2019.04.26 0335 UTC
Wind: from the N (350 degrees) at 14 MPH (12 KT):0
Visibility: 10 mile(s):0
Sky conditions: mostly cloudy
Temperature: 56.5 F (13.6 C)
Dew Point: 48.2 F (9.0 C)
Relative Humidity: 73%
Pressure (altimeter): 29.68 in. Hg (1005 hPa)
ob: KIKK 260335Z AUTO 35012KT 10SM BKN060 14/09 A2968 RMK AO2 T01360090
cycle: 3

Station Type Date Time Source
KIKK TAF UTC NOAA

Error!

Example: see airport list